createdAt,value
2018-05-02T00:01:18.200Z,68.90
2018-05-02T00:07:22.913Z,69.69
2018-05-02T00:13:27.378Z,69.64
2018-05-02T00:19:31.719Z,70.90
2018-05-02T00:25:36.099Z,71.27
2018-05-02T00:31:40.569Z,71.27
2018-05-02T00:37:44.930Z,71.68
2018-05-02T00:43:49.280Z,71.75
2018-05-02T00:49:53.870Z,72.19
2018-05-02T00:55:59.093Z,72.22
2018-05-02T01:02:03.446Z,72.58
2018-05-02T01:08:07.817Z,72.93
2018-05-02T01:14:12.930Z,73.23
2018-05-02T01:20:17.277Z,73.55
2018-05-02T01:26:22.484Z,73.79
2018-05-02T01:32:27.613Z,73.91
2018-05-02T01:38:32.004Z,73.96
2018-05-02T01:44:37.890Z,74.23
2018-05-02T01:50:42.234Z,74.79
2018-05-02T01:56:46.720Z,74.83
2018-05-02T02:02:51.798Z,75.80
2018-05-02T02:08:56.287Z,75.93
2018-05-02T02:15:00.723Z,75.89
2018-05-02T02:21:05.532Z,75.71
2018-05-02T02:27:09.941Z,75.44
2018-05-02T02:33:14.463Z,75.40
2018-05-02T02:39:19.727Z,75.73
2018-05-02T02:45:24.128Z,76.18
2018-05-02T02:51:28.571Z,76.31
2018-05-02T02:57:33.163Z,75.93
2018-05-02T03:03:37.884Z,76.31
2018-05-02T03:09:42.232Z,76.12
2018-05-02T03:15:46.705Z,76.07
2018-05-02T03:21:51.899Z,75.86
2018-05-02T03:27:57.800Z,76.23
2018-05-02T03:34:02.937Z,75.88
2018-05-02T03:40:07.384Z,76.18
2018-05-02T03:46:11.732Z,76.58
2018-05-02T03:52:16.265Z,76.64
2018-05-02T03:58:21.598Z,76.59
2018-05-02T04:04:43.790Z,77.12
2018-05-02T04:10:48.160Z,77.51
2018-05-02T04:16:53.415Z,77.12
2018-05-02T04:22:57.918Z,77.45
2018-05-02T04:29:03.073Z,76.96
2018-05-02T04:35:07.438Z,77.15
2018-05-02T04:41:11.984Z,76.69
2018-05-02T04:47:16.339Z,76.90
2018-05-02T04:53:21.195Z,76.59
2018-05-02T04:59:25.867Z,75.77
2018-05-02T05:05:30.190Z,75.07
2018-05-02T05:11:34.601Z,75.00
2018-05-02T05:17:39.842Z,74.57
2018-05-02T05:23:45.044Z,74.50
2018-05-02T05:29:50.235Z,74.45
2018-05-02T05:35:54.839Z,73.64
2018-05-02T05:41:59.282Z,73.17
2018-05-02T05:48:04.518Z,72.86
2018-05-02T05:54:08.964Z,72.65
2018-05-02T06:00:13.278Z,73.38
2018-05-02T06:06:18.386Z,69.61
2018-05-02T06:12:23.001Z,68.22
2018-05-02T06:18:28.212Z,67.73
2018-05-02T06:24:32.589Z,65.64
2018-05-02T06:30:37.996Z,66.59
2018-05-02T06:36:42.360Z,65.04
2018-05-02T06:42:46.723Z,65.67
2018-05-02T06:48:51.337Z,65.23
2018-05-02T06:54:55.722Z,64.65
2018-05-02T07:01:00.126Z,63.11
2018-05-02T07:07:04.555Z,61.75
2018-05-02T07:13:08.932Z,62.02
2018-05-02T07:19:13.349Z,59.37
2018-05-02T07:25:18.088Z,59.33
2018-05-02T07:31:22.819Z,58.30
2018-05-02T07:37:27.441Z,56.96
2018-05-02T07:43:31.806Z,54.75
2018-05-02T07:49:36.995Z,53.45
2018-05-02T07:55:41.436Z,53.76
2018-05-02T08:01:45.905Z,52.84
2018-05-02T08:07:52.067Z,50.62
2018-05-02T08:13:56.630Z,49.92
2018-05-02T08:20:01.047Z,48.17
2018-05-02T08:26:05.394Z,49.83
2018-05-02T08:32:10.645Z,45.69
2018-05-02T08:38:15.004Z,44.45
2018-05-02T08:44:19.677Z,45.57
2018-05-02T08:50:24.999Z,46.06
2018-05-02T08:56:29.355Z,45.41
2018-05-02T09:02:33.716Z,44.90
2018-05-02T09:08:38.091Z,46.37
2018-05-02T09:14:44.178Z,44.12
2018-05-02T09:20:49.442Z,43.68
2018-05-02T09:26:54.169Z,44.10
2018-05-02T09:32:58.550Z,43.76
2018-05-02T09:39:02.897Z,42.75
2018-05-02T09:45:07.318Z,40.86
2018-05-02T09:51:11.668Z,40.23
2018-05-02T09:57:16.782Z,40.97
2018-05-02T10:03:21.291Z,38.95
2018-05-02T10:09:25.823Z,37.85
2018-05-02T10:15:30.278Z,38.88
2018-05-02T10:21:35.481Z,37.06
2018-05-02T10:27:40.748Z,38.34
2018-05-02T10:33:45.150Z,38.87
2018-05-02T10:39:49.883Z,36.92
2018-05-02T10:45:54.311Z,38.66
2018-05-02T10:51:59.463Z,37.30
2018-05-02T10:58:03.888Z,36.06
2018-05-02T11:04:08.258Z,37.20
2018-05-02T11:10:13.511Z,36.80
2018-05-02T11:16:19.726Z,36.83
2018-05-02T11:22:24.200Z,34.64
2018-05-02T11:28:28.675Z,35.78
2018-05-02T11:34:33.135Z,35.98
2018-05-02T11:40:37.550Z,36.25
2018-05-02T11:46:41.861Z,35.92
2018-05-02T11:52:46.249Z,34.71
2018-05-02T11:58:51.705Z,34.35
2018-05-02T12:04:56.084Z,33.56
2018-05-02T12:11:01.203Z,35.82
2018-05-02T12:17:05.595Z,36.95
2018-05-02T12:23:09.962Z,36.13
2018-05-02T12:29:14.298Z,37.66
2018-05-02T12:35:19.446Z,35.13
2018-05-02T12:41:23.816Z,32.39
2018-05-02T12:47:28.171Z,33.87
2018-05-02T12:53:32.534Z,35.37
2018-05-02T12:59:37.667Z,33.72
2018-05-02T13:05:42.023Z,32.61
2018-05-02T13:11:46.459Z,30.86
2018-05-02T13:17:51.859Z,33.65
2018-05-02T13:23:56.368Z,31.95
2018-05-02T13:30:00.754Z,34.25
2018-05-02T13:36:05.131Z,34.92
2018-05-02T13:42:09.493Z,34.06
2018-05-02T13:48:13.867Z,35.26
2018-05-02T13:54:18.242Z,33.20
2018-05-02T14:13:27.642Z,32.06
2018-05-02T14:19:32.893Z,34.35
2018-05-02T14:25:37.343Z,33.11
2018-05-02T14:31:42.518Z,32.27
2018-05-02T14:37:46.971Z,32.25
2018-05-02T14:43:51.455Z,32.63
2018-05-02T14:49:55.876Z,32.81
2018-05-02T14:56:00.258Z,34.90
2018-05-02T15:02:04.719Z,35.52
2018-05-02T15:08:09.880Z,36.49
2018-05-02T15:14:14.204Z,37.33
2018-05-02T15:20:18.838Z,36.29
2018-05-02T15:26:23.467Z,35.14
2018-05-02T15:32:28.549Z,31.67
2018-05-02T15:38:32.876Z,32.32
2018-05-02T15:44:37.436Z,35.08
2018-05-02T15:50:41.797Z,37.97
2018-05-02T15:56:47.079Z,38.11
2018-05-02T16:02:52.072Z,39.29
2018-05-02T16:08:56.510Z,39.81
2018-05-02T16:15:00.871Z,39.75
2018-05-02T16:21:05.330Z,41.43
2018-05-02T16:27:09.827Z,44.05
2018-05-02T16:33:14.243Z,43.55
2018-05-02T16:39:18.969Z,47.03
2018-05-02T16:45:24.143Z,46.56
2018-05-02T16:51:28.493Z,47.31
2018-05-02T16:57:32.879Z,49.80
2018-05-02T17:03:37.332Z,50.09
2018-05-02T17:09:42.590Z,50.93
2018-05-02T17:15:46.962Z,50.81
2018-05-02T17:21:51.530Z,51.52
2018-05-02T17:27:56.332Z,52.53
2018-05-02T17:34:00.710Z,57.54
2018-05-02T17:40:05.071Z,58.28
2018-05-02T17:46:09.505Z,59.22
2018-05-02T17:52:13.998Z,59.62
2018-05-02T17:58:18.370Z,59.26
2018-05-02T18:04:22.857Z,60.32
2018-05-02T18:10:27.329Z,61.44
2018-05-02T18:16:32.467Z,62.33
2018-05-02T18:22:37.747Z,64.03
2018-05-02T18:28:42.119Z,63.96
2018-05-02T18:34:46.473Z,64.58
2018-05-02T18:40:52.031Z,65.34
2018-05-02T18:46:56.517Z,65.77
2018-05-02T18:53:00.961Z,66.76
2018-05-02T18:59:05.389Z,67.42
2018-05-02T19:05:09.866Z,67.85
2018-05-02T19:11:14.320Z,68.46
2018-05-02T19:17:19.961Z,68.91
2018-05-02T19:23:24.567Z,69.12
2018-05-02T19:29:29.097Z,68.60
2018-05-02T19:35:33.558Z,68.94
2018-05-02T19:48:21.453Z,68.64
2018-05-02T19:54:25.911Z,68.05
2018-05-02T20:00:36.717Z,68.38
2018-05-02T20:06:41.076Z,68.72
2018-05-02T20:12:51.072Z,67.92
2018-05-02T20:18:55.546Z,67.39
2018-05-02T20:25:00.004Z,67.37
2018-05-02T20:31:04.460Z,68.13
2018-05-02T20:37:08.814Z,67.89
2018-05-02T20:43:13.942Z,66.80
2018-05-02T20:49:18.463Z,67.25
2018-05-02T20:55:24.002Z,68.27
2018-05-02T21:01:28.311Z,68.59
2018-05-02T21:07:32.760Z,67.85
2018-05-02T21:13:37.191Z,68.67
2018-05-02T21:19:42.355Z,68.83
2018-05-02T21:25:47.479Z,68.55
2018-05-02T21:31:51.837Z,67.79
2018-05-02T21:37:56.206Z,68.80
2018-05-02T21:44:00.569Z,68.24
2018-05-02T21:50:04.947Z,68.44
2018-05-02T21:56:09.308Z,68.72
2018-05-02T22:02:13.692Z,68.51
2018-05-02T22:08:18.161Z,68.66
2018-05-02T22:14:22.930Z,66.85
2018-05-02T22:20:27.305Z,67.19
2018-05-02T22:26:31.653Z,67.48
2018-05-02T22:32:36.785Z,68.65
2018-05-02T22:38:41.189Z,68.78
2018-05-02T22:44:45.669Z,70.00
2018-05-02T22:50:52.022Z,70.00
2018-05-02T22:56:56.497Z,69.45
2018-05-02T23:03:01.757Z,69.97
2018-05-02T23:09:06.119Z,69.55
2018-05-02T23:15:10.476Z,69.50
2018-05-02T23:21:14.944Z,70.10
2018-05-02T23:27:19.724Z,70.13
2018-05-02T23:33:24.212Z,70.56
2018-05-02T23:39:28.580Z,70.85
2018-05-02T23:45:32.939Z,69.75
2018-05-02T23:51:38.109Z,69.90
2018-05-02T23:57:42.482Z,70.21
